Norfolk — WDG2147 — position and weather

sailwx.info

Track history (hours):
 
Tides and Currents Weather Stations Pressure Air Temp Water Temp Dewpoint Dewpoint Depression Visibility Wind Speed Wind Dir Waves Ship Positions

Norfolk

Owner: Virginia Pilot Boat Corporation, Virginia Beach, VA. More information available from US FCC via Universal Licensing System and Coast Guard Vessel Documentation Center.

Last reported at 2017-Oct-20 02:48 UTC. Time now 2017-Oct-20 03:19 UTC.
Position N 36°56' W 076°02'.

Length 18 m; draft 1.5 m.

Type: Pilot. MMSI: 367512630.

Date/timePositionNaut miles runAvg speedWind from/ knotsBaromVisibWave heightAir tempDewpointWater temp
2017-Oct-20 02:48N 36°56' W 076°02'3 0.7
2017-Oct-19 22:22N 36°54' W 076°05'0 0.0
2017-Oct-19 21:56N 36°54' W 076°05'0 0.0
2017-Oct-19 21:30N 36°54' W 076°05'0 0.0
2017-Oct-19 21:01N 36°54' W 076°05'0 0.0
2017-Oct-19 20:22N 36°54' W 076°05'0 0.0
2017-Oct-19 20:00N 36°54' W 076°05'0 0.0
2017-Oct-19 19:16N 36°54' W 076°05'311.1
2017-Oct-19 18:58N 36°56' W 076°02'1 1.5
2017-Oct-19 18:25N 36°56' W 076°03'3 6.6
2017-Oct-19 18:00N 36°54' W 076°05'2 3.4
2017-Oct-19 17:30N 36°56' W 076°04'2 3.5
2017-Oct-19 16:55N 36°56' W 076°02'4 8.5
2017-Oct-19 16:30N 36°54' W 076°05'0 0.0
2017-Oct-19 16:00N 36°54' W 076°05'0 0.0
2017-Oct-19 15:30N 36°54' W 076°05'4 8.7
2017-Oct-19 15:00N 36°57' W 076°01'3 4.9
2017-Oct-19 14:26N 36°56' W 076°04'2 1.0
2017-Oct-19 12:49N 36°54' W 076°05'617.0
2017-Oct-19 12:29N 36°56' W 075°59'4 8.0
2017-Oct-19 12:00N 36°56' W 076°03'2 4.5
2017-Oct-19 11:30N 36°54' W 076°05'0 0.0
2017-Oct-19 06:51N 36°54' W 076°05'1 1.2
2017-Oct-19 05:59N 36°55' W 076°05'1 0.2
2017-Oct-19 00:25N 36°54' W 076°05'819.5
2017-Oct-19 00:00N 36°56' W 075°56'8 5.0
2017-Oct-18 22:27N 36°54' W 076°05'0 0.0
2017-Oct-18 21:58N 36°54' W 076°05'0 0.0
2017-Oct-18 21:16N 36°54' W 076°05'0 0.0
2017-Oct-18 20:58N 36°54' W 076°05'0 0.0
2017-Oct-18 20:29N 36°54' W 076°05'813.3
2017-Oct-18 19:52N 36°56' W 075°55'617.1
2017-Oct-18 19:30N 36°56' W 076°03'2 4.7
2017-Oct-18 19:00N 36°54' W 076°05'2 1.0
2017-Oct-18 17:13N 36°56' W 076°05'1 0.2
2017-Oct-18 13:58N 36°55' W 076°05'1 1.6
2017-Oct-18 13:20N 36°54' W 076°05'0 0.0
2017-Oct-18 11:36N 36°54' W 076°05'111.1
2017-Oct-18 11:30N 36°55' W 076°05'1 1.9
2017-Oct-18 10:56N 36°56' W 076°04'2 3.4
2017-Oct-18 10:19N 36°54' W 076°05'0 0.0
2017-Oct-18 09:48N 36°54' W 076°05'0 0.1
2017-Oct-18 09:25N 36°54' W 076°05'919.7
2017-Oct-18 08:59N 36°55' W 075°55'916.6
2017-Oct-18 08:28N 36°54' W 076°05'0 0.0
2017-Oct-18 07:53N 36°54' W 076°05'0 0.0
2017-Oct-18 07:21N 36°54' W 076°05'0 0.0
2017-Oct-18 06:57N 36°54' W 076°05'0 0.0
2017-Oct-18 06:11N 36°54' W 076°05'0 0.0
2017-Oct-18 05:50N 36°54' W 076°05'0 0.0
2017-Oct-18 05:29N 36°54' W 076°05'0 0.0
2017-Oct-18 04:49N 36°54' W 076°05'0 0.0
2017-Oct-18 04:30N 36°54' W 076°05'0 0.0
2017-Oct-18 04:00N 36°54' W 076°05'0 0.0
2017-Oct-18 03:24N 36°54' W 076°05'0 0.0
2017-Oct-18 02:57N 36°54' W 076°05'0 0.0
2017-Oct-18 02:26N 36°54' W 076°05'0 0.1
2017-Oct-18 01:28N 36°54' W 076°06'0 0.1
2017-Oct-17 23:34N 36°54' W 076°05'216.9
2017-Oct-17 23:27N 36°56' W 076°04'2 2.4
2017-Oct-17 22:36N 36°54' W 076°06'0 0.9
2017-Oct-17 22:28N 36°54' W 076°05'0 0.0
2017-Oct-17 22:00N 36°54' W 076°05'2 1.2
2017-Oct-17 20:09N 36°57' W 076°05'213.0
2017-Oct-17 19:59N 36°54' W 076°05'2 1.5
2017-Oct-17 18:25N 36°57' W 076°05'2 2.4
2017-Oct-17 17:26N 36°54' W 076°05'1 2.6
2017-Oct-17 17:00N 36°55' W 076°05'4 5.2
2017-Oct-17 16:20N 36°56' W 076°01'413.2
2017-Oct-17 16:01N 36°54' W 076°05'0 0.0
2017-Oct-17 15:29N 36°54' W 076°05'0 0.0
2017-Oct-17 15:00N 36°54' W 076°05'0 0.0
2017-Oct-17 14:30N 36°54' W 076°05'0 0.0
2017-Oct-17 14:00N 36°54' W 076°05'0 0.0
2017-Oct-17 13:29N 36°54' W 076°05'0 0.0
2017-Oct-17 13:00N 36°54' W 076°05'0 0.0
2017-Oct-17 12:30N 36°54' W 076°05'0 0.0
2017-Oct-17 12:00N 36°54' W 076°05'0 0.0
2017-Oct-17 11:31N 36°54' W 076°05'0 0.0
2017-Oct-17 09:19N 36°54' W 076°05'817.7
2017-Oct-17 08:54N 36°56' W 075°56'8 5.3
2017-Oct-17 07:28N 36°54' W 076°05'2 2.5
2017-Oct-17 06:38N 36°56' W 076°04'210.9
2017-Oct-17 06:27N 36°55' W 076°06'0 0.1
2017-Oct-17 04:52N 36°54' W 076°05'3 3.9
2017-Oct-17 04:06N 36°57' W 076°03'3 3.0
2017-Oct-17 03:06N 36°54' W 076°05'0 0.0
2017-Oct-16 21:04N 36°54' W 076°05'0 0.1
2017-Oct-16 20:58N 36°54' W 076°05'0 0.0
2017-Oct-16 20:16N 36°54' W 076°05'0 0.0
2017-Oct-16 19:58N 36°54' W 076°05'0 0.0
2017-Oct-16 19:26N 36°54' W 076°05'0 0.0
2017-Oct-16 18:14N 36°54' W 076°05'0 0.0
2017-Oct-16 17:58N 36°54' W 076°05'0 0.0
2017-Oct-16 17:22N 36°54' W 076°05'716.5
2017-Oct-16 16:56N 36°56' W 075°57'614.7
2017-Oct-16 16:30N 36°56' W 076°04'1 0.7
2017-Oct-16 14:28N 36°54' W 076°05'0 0.2
2017-Oct-16 13:30N 36°55' W 076°06'714.1
2017-Oct-16 12:59N 36°55' W 075°56'714.5
2017-Oct-16 12:30N 36°55' W 076°05'1 1.7
2017-Oct-16 11:59N 36°54' W 076°05'0 0.0
2017-Oct-16 11:30N 36°54' W 076°05'0 0.0
2017-Oct-16 08:24N 36°54' W 076°05'0 0.2
2017-Oct-16 07:54N 36°54' W 076°06'1 2.5
2017-Oct-16 07:29N 36°55' W 076°05'0 0.1
2017-Oct-16 06:11N 36°55' W 076°05'1 5.1
2017-Oct-16 05:59N 36°54' W 076°05'0 0.1
2017-Oct-16 02:53N 36°55' W 076°05'0 0.3
2017-Oct-16 01:42N 36°54' W 076°05'0 0.1
2017-Oct-16 01:30N 36°54' W 076°05'1 1.3
2017-Oct-16 00:39N 36°55' W 076°05'1 1.0
2017-Oct-15 23:33N 36°54' W 076°05'0 0.0
2017-Oct-15 22:28N 36°54' W 076°05'0 0.0
2017-Oct-15 21:59N 36°54' W 076°05'0 0.0
2017-Oct-15 21:30N 36°54' W 076°05'0 0.0
2017-Oct-15 21:00N 36°54' W 076°05'0 0.0
2017-Oct-15 20:30N 36°54' W 076°05'0 0.0
2017-Oct-15 20:00N 36°54' W 076°05'0 0.0
2017-Oct-15 19:29N 36°54' W 076°05'0 0.0
2017-Oct-15 18:59N 36°54' W 076°05'0 0.1
2017-Oct-15 18:30N 36°54' W 076°05'714.3
2017-Oct-15 17:59N 36°56' W 075°56'715.5
2017-Oct-15 17:30N 36°54' W 076°05'0 0.0
2017-Oct-15 17:00N 36°54' W 076°05'0 0.0
2017-Oct-15 16:30N 36°54' W 076°05'0 0.0
2017-Oct-15 16:00N 36°54' W 076°05'3 1.2
2017-Oct-15 13:51N 36°57' W 076°05'2 6.9
2017-Oct-15 13:30N 36°55' W 076°06'4 7.5
2017-Oct-15 12:57N 36°56' W 076°01'4 0.8
2017-Oct-15 07:59N 36°56' W 075°56'7 8.6
2017-Oct-15 07:11N 36°55' W 076°05'722.1
2017-Oct-15 06:53N 36°56' W 075°56'7 0.6
2017-Oct-14 19:17N 36°54' W 076°05'818.5
2017-Oct-14 18:52N 36°56' W 075°56'719.1
2017-Oct-14 18:30N 36°55' W 076°05'1 1.7
2017-Oct-14 17:47N 36°54' W 076°05'0 0.0
2017-Oct-14 17:27N 36°54' W 076°05'0 0.1
2017-Oct-14 17:00N 36°54' W 076°05'1 2.4
2017-Oct-14 16:30N 36°55' W 076°05'1 0.7
2017-Oct-14 14:54N 36°54' W 076°05'0 0.0
2017-Oct-14 14:28N 36°54' W 076°05'0 0.0
2017-Oct-14 14:00N 36°54' W 076°05'0 0.0
2017-Oct-14 13:26N 36°54' W 076°05'716.0
2017-Oct-14 12:58N 36°56' W 075°56'7 4.5
2017-Oct-14 11:21N 36°54' W 076°05'0 0.0
2017-Oct-13 22:19N 36°54' W 076°05'0 0.0
2017-Oct-13 21:45N 36°54' W 076°05'0 0.0
2017-Oct-13 21:29N 36°54' W 076°05'0 0.0
2017-Oct-13 21:00N 36°54' W 076°05'0 0.2
2017-Oct-13 18:59N 36°55' W 076°05'0 0.2
2017-Oct-13 16:02N 36°54' W 076°05'0 2.3
2017-Oct-13 16:00N 36°54' W 076°05'3 2.2
2017-Oct-13 14:28N 36°58' W 076°05'3 7.5
2017-Oct-13 14:00N 36°54' W 076°05'7 9.0
2017-Oct-13 13:15N 36°56' W 075°57'312.2
2017-Oct-13 12:59N 36°56' W 076°01'4 5.2
2017-Oct-13 12:16N 36°54' W 076°05'0 0.0
2017-Oct-13 11:45N 36°54' W 076°05'0 0.0
2017-Oct-13 07:17N 36°54' W 076°05'0 0.1
2017-Oct-13 06:09N 36°54' W 076°06'0 0.2
2017-Oct-13 05:48N 36°54' W 076°05'415.0
2017-Oct-13 05:30N 36°57' W 076°01'4 0.5
2017-Oct-12 21:43N 36°56' W 076°06'1 4.5
2017-Oct-12 21:24N 36°54' W 076°05'3 4.1
2017-Oct-12 20:34N 36°56' W 076°02'213.6
2017-Oct-12 20:26N 36°56' W 076°04'2 1.0
2017-Oct-12 18:31N 36°54' W 076°05'0 7.3
2017-Oct-12 18:30N 36°54' W 076°05'815.4
2017-Oct-12 18:00N 36°55' W 075°56'510.1
2017-Oct-12 17:30N 36°56' W 076°02'3 5.7
2017-Oct-12 16:57N 36°54' W 076°05'0 0.1
2017-Oct-12 16:31N 36°54' W 076°05'4 5.8
2017-Oct-12 15:48N 36°56' W 076°01'4 1.0
2017-Oct-12 11:50N 36°54' W 076°05'816.8
2017-Oct-12 11:23N 36°56' W 075°56'8 2.9
2017-Oct-12 08:45N 36°54' W 076°05'0 0.2
2017-Oct-12 06:47N 36°55' W 076°05'0 0.1
2017-Oct-12 03:44N 36°54' W 076°05'618.4
2017-Oct-12 03:24N 36°58' W 075°60'613.8
2017-Oct-12 02:58N 36°54' W 076°06'0 0.0
2017-Oct-11 21:06N 36°54' W 076°05'0 0.0
2017-Oct-11 20:34N 36°54' W 076°05'0 0.0
2017-Oct-11 20:31N 36°54' W 076°05'0 0.0
2017-Oct-11 20:00N 36°54' W 076°05'0 0.0
2017-Oct-10 22:35N 36°54' W 076°05'0 0.0
2017-Oct-10 22:30N 36°54' W 076°05'0 0.0
2017-Oct-10 21:52N 36°54' W 076°05'0 0.0
2017-Oct-10 21:28N 36°54' W 076°05'0 0.0
2017-Oct-10 18:25N 36°54' W 076°05'0 0.0
2017-Oct-10 16:02N 36°54' W 076°05'0 0.0
2017-Oct-10 16:00N 36°54' W 076°05'0 0.1
2017-Oct-10 13:49N 36°54' W 076°06'0 0.4
2017-Oct-10 13:22N 36°54' W 076°05'0 0.0
2017-Oct-10 13:00N 36°54' W 076°05'0 0.0
2017-Oct-10 12:26N 36°54' W 076°05'  
Track history (hours):
 
Tides and Currents Weather Stations Pressure Air Temp Water Temp Dewpoint Dewpoint Depression Visibility Wind Speed Wind Dir Waves Ship Positions

Norfolk

Owner: Virginia Pilot Boat Corporation, Virginia Beach, VA. More information available from US FCC via Universal Licensing System and Coast Guard Vessel Documentation Center.

Last reported at 2017-Oct-20 02:48 UTC. Time now 2017-Oct-20 03:19 UTC.
Position N 36°56' W 076°02'.

Length 18 m; draft 1.5 m.

Type: Pilot. MMSI: 367512630.

Date/timePositionNaut miles runAvg speedWind from/ knotsBaromVisibWave heightAir tempDewpointWater temp
2017-Oct-20 02:48N 36°56' W 076°02'3 0.7
2017-Oct-19 22:22N 36°54' W 076°05'0 0.0
2017-Oct-19 21:56N 36°54' W 076°05'0 0.0
2017-Oct-19 21:30N 36°54' W 076°05'0 0.0
2017-Oct-19 21:01N 36°54' W 076°05'0 0.0
2017-Oct-19 20:22N 36°54' W 076°05'0 0.0
2017-Oct-19 20:00N 36°54' W 076°05'0 0.0
2017-Oct-19 19:16N 36°54' W 076°05'311.1
2017-Oct-19 18:58N 36°56' W 076°02'1 1.5
2017-Oct-19 18:25N 36°56' W 076°03'3 6.6
2017-Oct-19 18:00N 36°54' W 076°05'2 3.4
2017-Oct-19 17:30N 36°56' W 076°04'2 3.5
2017-Oct-19 16:55N 36°56' W 076°02'4 8.5
2017-Oct-19 16:30N 36°54' W 076°05'0 0.0
2017-Oct-19 16:00N 36°54' W 076°05'0 0.0
2017-Oct-19 15:30N 36°54' W 076°05'4 8.7
2017-Oct-19 15:00N 36°57' W 076°01'3 4.9
2017-Oct-19 14:26N 36°56' W 076°04'2 1.0
2017-Oct-19 12:49N 36°54' W 076°05'617.0
2017-Oct-19 12:29N 36°56' W 075°59'4 8.0
2017-Oct-19 12:00N 36°56' W 076°03'2 4.5
2017-Oct-19 11:30N 36°54' W 076°05'0 0.0
2017-Oct-19 06:51N 36°54' W 076°05'1 1.2
2017-Oct-19 05:59N 36°55' W 076°05'1 0.2
2017-Oct-19 00:25N 36°54' W 076°05'819.5
2017-Oct-19 00:00N 36°56' W 075°56'8 5.0
2017-Oct-18 22:27N 36°54' W 076°05'0 0.0
2017-Oct-18 21:58N 36°54' W 076°05'0 0.0
2017-Oct-18 21:16N 36°54' W 076°05'0 0.0
2017-Oct-18 20:58N 36°54' W 076°05'0 0.0
2017-Oct-18 20:29N 36°54' W 076°05'813.3
2017-Oct-18 19:52N 36°56' W 075°55'617.1
2017-Oct-18 19:30N 36°56' W 076°03'2 4.7
2017-Oct-18 19:00N 36°54' W 076°05'2 1.0
2017-Oct-18 17:13N 36°56' W 076°05'1 0.2
2017-Oct-18 13:58N 36°55' W 076°05'1 1.6
2017-Oct-18 13:20N 36°54' W 076°05'0 0.0
2017-Oct-18 11:36N 36°54' W 076°05'111.1
2017-Oct-18 11:30N 36°55' W 076°05'1 1.9
2017-Oct-18 10:56N 36°56' W 076°04'2 3.4
2017-Oct-18 10:19N 36°54' W 076°05'0 0.0
2017-Oct-18 09:48N 36°54' W 076°05'0 0.1
2017-Oct-18 09:25N 36°54' W 076°05'919.7
2017-Oct-18 08:59N 36°55' W 075°55'916.6
2017-Oct-18 08:28N 36°54' W 076°05'0 0.0
2017-Oct-18 07:53N 36°54' W 076°05'0 0.0
2017-Oct-18 07:21N 36°54' W 076°05'0 0.0
2017-Oct-18 06:57N 36°54' W 076°05'0 0.0
2017-Oct-18 06:11N 36°54' W 076°05'0 0.0
2017-Oct-18 05:50N 36°54' W 076°05'0 0.0
2017-Oct-18 05:29N 36°54' W 076°05'0 0.0
2017-Oct-18 04:49N 36°54' W 076°05'0 0.0
2017-Oct-18 04:30N 36°54' W 076°05'0 0.0
2017-Oct-18 04:00N 36°54' W 076°05'0 0.0
2017-Oct-18 03:24N 36°54' W 076°05'0 0.0
2017-Oct-18 02:57N 36°54' W 076°05'0 0.0
2017-Oct-18 02:26N 36°54' W 076°05'0 0.1
2017-Oct-18 01:28N 36°54' W 076°06'0 0.1
2017-Oct-17 23:34N 36°54' W 076°05'216.9
2017-Oct-17 23:27N 36°56' W 076°04'2 2.4
2017-Oct-17 22:36N 36°54' W 076°06'0 0.9
2017-Oct-17 22:28N 36°54' W 076°05'0 0.0
2017-Oct-17 22:00N 36°54' W 076°05'2 1.2
2017-Oct-17 20:09N 36°57' W 076°05'213.0
2017-Oct-17 19:59N 36°54' W 076°05'2 1.5
2017-Oct-17 18:25N 36°57' W 076°05'2 2.4
2017-Oct-17 17:26N 36°54' W 076°05'1 2.6
2017-Oct-17 17:00N 36°55' W 076°05'4 5.2
2017-Oct-17 16:20N 36°56' W 076°01'413.2
2017-Oct-17 16:01N 36°54' W 076°05'0 0.0
2017-Oct-17 15:29N 36°54' W 076°05'0 0.0
2017-Oct-17 15:00N 36°54' W 076°05'0 0.0
2017-Oct-17 14:30N 36°54' W 076°05'0 0.0
2017-Oct-17 14:00N 36°54' W 076°05'0 0.0
2017-Oct-17 13:29N 36°54' W 076°05'0 0.0
2017-Oct-17 13:00N 36°54' W 076°05'0 0.0
2017-Oct-17 12:30N 36°54' W 076°05'0 0.0
2017-Oct-17 12:00N 36°54' W 076°05'0 0.0
2017-Oct-17 11:31N 36°54' W 076°05'0 0.0
2017-Oct-17 09:19N 36°54' W 076°05'817.7
2017-Oct-17 08:54N 36°56' W 075°56'8 5.3
2017-Oct-17 07:28N 36°54' W 076°05'2 2.5
2017-Oct-17 06:38N 36°56' W 076°04'210.9
2017-Oct-17 06:27N 36°55' W 076°06'0 0.1
2017-Oct-17 04:52N 36°54' W 076°05'3 3.9
2017-Oct-17 04:06N 36°57' W 076°03'3 3.0
2017-Oct-17 03:06N 36°54' W 076°05'0 0.0
2017-Oct-16 21:04N 36°54' W 076°05'0 0.1
2017-Oct-16 20:58N 36°54' W 076°05'0 0.0
2017-Oct-16 20:16N 36°54' W 076°05'0 0.0
2017-Oct-16 19:58N 36°54' W 076°05'0 0.0
2017-Oct-16 19:26N 36°54' W 076°05'0 0.0
2017-Oct-16 18:14N 36°54' W 076°05'0 0.0
2017-Oct-16 17:58N 36°54' W 076°05'0 0.0
2017-Oct-16 17:22N 36°54' W 076°05'716.5
2017-Oct-16 16:56N 36°56' W 075°57'614.7
2017-Oct-16 16:30N 36°56' W 076°04'1 0.7
2017-Oct-16 14:28N 36°54' W 076°05'0 0.2
2017-Oct-16 13:30N 36°55' W 076°06'714.1
2017-Oct-16 12:59N 36°55' W 075°56'714.5
2017-Oct-16 12:30N 36°55' W 076°05'1 1.7
2017-Oct-16 11:59N 36°54' W 076°05'0 0.0
2017-Oct-16 11:30N 36°54' W 076°05'0 0.0
2017-Oct-16 08:24N 36°54' W 076°05'0 0.2
2017-Oct-16 07:54N 36°54' W 076°06'1 2.5
2017-Oct-16 07:29N 36°55' W 076°05'0 0.1
2017-Oct-16 06:11N 36°55' W 076°05'1 5.1
2017-Oct-16 05:59N 36°54' W 076°05'0 0.1
2017-Oct-16 02:53N 36°55' W 076°05'0 0.3
2017-Oct-16 01:42N 36°54' W 076°05'0 0.1
2017-Oct-16 01:30N 36°54' W 076°05'1 1.3
2017-Oct-16 00:39N 36°55' W 076°05'1 1.0
2017-Oct-15 23:33N 36°54' W 076°05'0 0.0
2017-Oct-15 22:28N 36°54' W 076°05'0 0.0
2017-Oct-15 21:59N 36°54' W 076°05'0 0.0
2017-Oct-15 21:30N 36°54' W 076°05'0 0.0
2017-Oct-15 21:00N 36°54' W 076°05'0 0.0
2017-Oct-15 20:30N 36°54' W 076°05'0 0.0
2017-Oct-15 20:00N 36°54' W 076°05'0 0.0
2017-Oct-15 19:29N 36°54' W 076°05'0 0.0
2017-Oct-15 18:59N 36°54' W 076°05'0 0.1
2017-Oct-15 18:30N 36°54' W 076°05'714.3
2017-Oct-15 17:59N 36°56' W 075°56'715.5
2017-Oct-15 17:30N 36°54' W 076°05'0 0.0
2017-Oct-15 17:00N 36°54' W 076°05'0 0.0
2017-Oct-15 16:30N 36°54' W 076°05'0 0.0
2017-Oct-15 16:00N 36°54' W 076°05'3 1.2
2017-Oct-15 13:51N 36°57' W 076°05'2 6.9
2017-Oct-15 13:30N 36°55' W 076°06'4 7.5
2017-Oct-15 12:57N 36°56' W 076°01'4 0.8
2017-Oct-15 07:59N 36°56' W 075°56'7 8.6
2017-Oct-15 07:11N 36°55' W 076°05'722.1
2017-Oct-15 06:53N 36°56' W 075°56'7 0.6
2017-Oct-14 19:17N 36°54' W 076°05'818.5
2017-Oct-14 18:52N 36°56' W 075°56'719.1
2017-Oct-14 18:30N 36°55' W 076°05'1 1.7
2017-Oct-14 17:47N 36°54' W 076°05'0 0.0
2017-Oct-14 17:27N 36°54' W 076°05'0 0.1
2017-Oct-14 17:00N 36°54' W 076°05'1 2.4
2017-Oct-14 16:30N 36°55' W 076°05'1 0.7
2017-Oct-14 14:54N 36°54' W 076°05'0 0.0
2017-Oct-14 14:28N 36°54' W 076°05'0 0.0
2017-Oct-14 14:00N 36°54' W 076°05'0 0.0
2017-Oct-14 13:26N 36°54' W 076°05'716.0
2017-Oct-14 12:58N 36°56' W 075°56'7 4.5
2017-Oct-14 11:21N 36°54' W 076°05'0 0.0
2017-Oct-13 22:19N 36°54' W 076°05'0 0.0
2017-Oct-13 21:45N 36°54' W 076°05'0 0.0
2017-Oct-13 21:29N 36°54' W 076°05'0 0.0
2017-Oct-13 21:00N 36°54' W 076°05'0 0.2
2017-Oct-13 18:59N 36°55' W 076°05'0 0.2
2017-Oct-13 16:02N 36°54' W 076°05'0 2.3
2017-Oct-13 16:00N 36°54' W 076°05'3 2.2
2017-Oct-13 14:28N 36°58' W 076°05'3 7.5
2017-Oct-13 14:00N 36°54' W 076°05'7 9.0
2017-Oct-13 13:15N 36°56' W 075°57'312.2
2017-Oct-13 12:59N 36°56' W 076°01'4 5.2
2017-Oct-13 12:16N 36°54' W 076°05'0 0.0
2017-Oct-13 11:45N 36°54' W 076°05'0 0.0
2017-Oct-13 07:17N 36°54' W 076°05'0 0.1
2017-Oct-13 06:09N 36°54' W 076°06'0 0.2
2017-Oct-13 05:48N 36°54' W 076°05'415.0
2017-Oct-13 05:30N 36°57' W 076°01'4 0.5
2017-Oct-12 21:43N 36°56' W 076°06'1 4.5
2017-Oct-12 21:24N 36°54' W 076°05'3 4.1
2017-Oct-12 20:34N 36°56' W 076°02'213.6
2017-Oct-12 20:26N 36°56' W 076°04'2 1.0
2017-Oct-12 18:31N 36°54' W 076°05'0 7.3
2017-Oct-12 18:30N 36°54' W 076°05'815.4
2017-Oct-12 18:00N 36°55' W 075°56'510.1
2017-Oct-12 17:30N 36°56' W 076°02'3 5.7
2017-Oct-12 16:57N 36°54' W 076°05'0 0.1
2017-Oct-12 16:31N 36°54' W 076°05'4 5.8
2017-Oct-12 15:48N 36°56' W 076°01'4 1.0
2017-Oct-12 11:50N 36°54' W 076°05'816.8
2017-Oct-12 11:23N 36°56' W 075°56'8 2.9
2017-Oct-12 08:45N 36°54' W 076°05'0 0.2
2017-Oct-12 06:47N 36°55' W 076°05'0 0.1
2017-Oct-12 03:44N 36°54' W 076°05'618.4
2017-Oct-12 03:24N 36°58' W 075°60'613.8
2017-Oct-12 02:58N 36°54' W 076°06'0 0.0
2017-Oct-11 21:06N 36°54' W 076°05'0 0.0
2017-Oct-11 20:34N 36°54' W 076°05'0 0.0
2017-Oct-11 20:31N 36°54' W 076°05'0 0.0
2017-Oct-11 20:00N 36°54' W 076°05'0 0.0
2017-Oct-10 22:35N 36°54' W 076°05'0 0.0
2017-Oct-10 22:30N 36°54' W 076°05'0 0.0
2017-Oct-10 21:52N 36°54' W 076°05'0 0.0
2017-Oct-10 21:28N 36°54' W 076°05'0 0.0
2017-Oct-10 18:25N 36°54' W 076°05'0 0.0
2017-Oct-10 16:02N 36°54' W 076°05'0 0.0
2017-Oct-10 16:00N 36°54' W 076°05'0 0.1
2017-Oct-10 13:49N 36°54' W 076°06'0 0.4
2017-Oct-10 13:22N 36°54' W 076°05'0 0.0
2017-Oct-10 13:00N 36°54' W 076°05'0 0.0
2017-Oct-10 12:26N 36°54' W 076°05'  

Dump ship's entire track history